EZY696U EGGD-EGAC
Flight info
| Callsign | EZY696U |
|---|---|
| Flight time | 0h 54m |
| Altitude | 26000 |
| Route | BCN P69 DIZIM N864 KISWO/N0439F270 DCT AVTIC/N0447F280 DCT MONTY UN864 BILVO UP6 TUPEM DCT REMSI DCT NINEB M148 MAGEE |
| Aircraft | A320/M-SDE3FGHIRWY/LB1 |
Departure
| Time | 2026-04-25 12:42 |
|---|---|
| Airport | Bristol Airport (EGGD) |
Arrival
| Time | 2026-04-25 13:36 |
|---|---|
| Airport | George Best Belfast City Airport (EGAC) |
| Time | Latitude | Longitude | Altitude | Speed | Heading |
|---|---|---|---|---|---|
| 2026-04-25 11:52 | 51.38525 | -2.70907 | 611 ft | 0 kts | 267° |
| 2026-04-25 12:06 | 51.38525 | -2.70906 | 611 ft | 0 kts | 267° |
| 2026-04-25 12:29 | 51.38527 | -2.70884 | 624 ft | 2 kts | 252° |
| 2026-04-25 12:29 | 51.38533 | -2.70860 | 618 ft | 2 kts | 227° |
| 2026-04-25 12:29 | 51.38546 | -2.70844 | 621 ft | 2 kts | 198° |
| 2026-04-25 12:29 | 51.38562 | -2.70838 | 608 ft | 2 kts | 181° |
| 2026-04-25 12:30 | 51.38574 | -2.70838 | 613 ft | 1 kts | 177° |
| 2026-04-25 12:30 | 51.38575 | -2.70838 | 613 ft | 0 kts | 177° |
| 2026-04-25 12:32 | 51.38560 | -2.70837 | 608 ft | 5 kts | 177° |
| 2026-04-25 12:32 | 51.38513 | -2.70833 | 615 ft | 9 kts | 176° |
| 2026-04-25 12:33 | 51.38465 | -2.70865 | 622 ft | 10 kts | 249° |
| 2026-04-25 12:33 | 51.38462 | -2.70992 | 615 ft | 11 kts | 265° |
| 2026-04-25 12:33 | 51.38457 | -2.71096 | 616 ft | 8 kts | 266° |
| 2026-04-25 12:33 | 51.38453 | -2.71197 | 631 ft | 11 kts | 266° |
| 2026-04-25 12:34 | 51.38450 | -2.71302 | 618 ft | 9 kts | 267° |
| 2026-04-25 12:34 | 51.38446 | -2.71421 | 613 ft | 13 kts | 268° |
| 2026-04-25 12:34 | 51.38439 | -2.71567 | 616 ft | 10 kts | 266° |
| 2026-04-25 12:34 | 51.38437 | -2.71645 | 617 ft | 11 kts | 268° |
| 2026-04-25 12:35 | 51.38431 | -2.71800 | 606 ft | 10 kts | 266° |
| 2026-04-25 12:35 | 51.38429 | -2.71900 | 611 ft | 8 kts | 271° |
| 2026-04-25 12:35 | 51.38431 | -2.71982 | 606 ft | 7 kts | 272° |
| 2026-04-25 12:35 | 51.38429 | -2.72051 | 607 ft | 7 kts | 266° |
| 2026-04-25 12:36 | 51.38426 | -2.72137 | 618 ft | 9 kts | 266° |
| 2026-04-25 12:36 | 51.38422 | -2.72251 | 612 ft | 11 kts | 266° |
| 2026-04-25 12:36 | 51.38418 | -2.72351 | 614 ft | 8 kts | 266° |
| 2026-04-25 12:36 | 51.38413 | -2.72468 | 615 ft | 11 kts | 266° |
| 2026-04-25 12:37 | 51.38409 | -2.72581 | 625 ft | 9 kts | 266° |
| 2026-04-25 12:37 | 51.38405 | -2.72679 | 618 ft | 8 kts | 266° |
| 2026-04-25 12:37 | 51.38402 | -2.72761 | 628 ft | 7 kts | 266° |
| 2026-04-25 12:37 | 51.38399 | -2.72828 | 615 ft | 5 kts | 266° |
| 2026-04-25 12:38 | 51.38396 | -2.72908 | 626 ft | 10 kts | 266° |
| 2026-04-25 12:38 | 51.38391 | -2.73044 | 615 ft | 11 kts | 266° |
| 2026-04-25 12:38 | 51.38387 | -2.73147 | 615 ft | 7 kts | 266° |
| 2026-04-25 12:38 | 51.38386 | -2.73157 | 615 ft | 0 kts | 266° |
| 2026-04-25 12:39 | 51.38386 | -2.73158 | 615 ft | 1 kts | 266° |
| 2026-04-25 12:39 | 51.38385 | -2.73202 | 615 ft | 4 kts | 266° |
| 2026-04-25 12:40 | 51.38376 | -2.73268 | 627 ft | 10 kts | 249° |
| 2026-04-25 12:40 | 51.38330 | -2.73336 | 617 ft | 8 kts | 201° |
| 2026-04-25 12:40 | 51.38267 | -2.73339 | 622 ft | 11 kts | 175° |
| 2026-04-25 12:40 | 51.38216 | -2.73310 | 630 ft | 5 kts | 102° |
| 2026-04-25 12:41 | 51.38215 | -2.73269 | 628 ft | 1 kts | 89° |
| 2026-04-25 12:41 | 51.38215 | -2.73258 | 627 ft | 12 kts | 89° |
| 2026-04-25 12:41 | 51.38237 | -2.72648 | 628 ft | 94 kts | 86° |
| 2026-04-25 12:41 | 51.38289 | -2.71238 | 640 ft | 154 kts | 87° |
| 2026-04-25 12:42 | 51.38373 | -2.69412 | 1164 ft | 171 kts | 87° |
| 2026-04-25 12:42 | 51.38417 | -2.68160 | 1778 ft | 169 kts | 87° |
| 2026-04-25 12:42 | 51.38488 | -2.65577 | 2543 ft | 184 kts | 88° |
| 2026-04-25 12:42 | 51.38549 | -2.63398 | 2893 ft | 209 kts | 88° |
| 2026-04-25 12:43 | 51.38618 | -2.60957 | 3322 ft | 232 kts | 88° |
| 2026-04-25 12:43 | 51.38703 | -2.58235 | 3784 ft | 256 kts | 85° |
| 2026-04-25 12:43 | 51.40741 | -2.53733 | 5279 ft | 271 kts | 17° |
| 2026-04-25 12:44 | 51.42585 | -2.53596 | 6124 ft | 271 kts | 343° |
| 2026-04-25 12:44 | 51.44185 | -2.55145 | 7006 ft | 273 kts | 313° |
| 2026-04-25 12:44 | 51.46263 | -2.60276 | 8776 ft | 279 kts | 297° |
| 2026-04-25 12:45 | 51.47166 | -2.63050 | 9622 ft | 282 kts | 297° |
| 2026-04-25 12:45 | 51.48116 | -2.65842 | 10427 ft | 287 kts | 299° |
| 2026-04-25 12:45 | 51.50334 | -2.71770 | 10979 ft | 333 kts | 302° |
| 2026-04-25 12:46 | 51.51618 | -2.74979 | 11287 ft | 350 kts | 302° |
| 2026-04-25 12:46 | 51.52972 | -2.78288 | 11916 ft | 356 kts | 303° |
| 2026-04-25 12:46 | 51.54350 | -2.81622 | 12636 ft | 360 kts | 303° |
| 2026-04-25 12:46 | 51.55744 | -2.84983 | 13345 ft | 363 kts | 303° |
| 2026-04-25 12:47 | 51.57162 | -2.88415 | 14073 ft | 366 kts | 302° |
| 2026-04-25 12:47 | 51.58561 | -2.91821 | 14705 ft | 370 kts | 302° |
| 2026-04-25 12:47 | 51.59978 | -2.95292 | 15330 ft | 373 kts | 302° |
| 2026-04-25 12:47 | 51.61404 | -2.98798 | 15956 ft | 376 kts | 302° |
| 2026-04-25 12:48 | 51.62841 | -3.02330 | 16577 ft | 378 kts | 302° |
| 2026-04-25 12:48 | 51.64290 | -3.05893 | 17183 ft | 381 kts | 302° |
| 2026-04-25 12:48 | 51.65744 | -3.09477 | 17784 ft | 384 kts | 302° |
| 2026-04-25 12:48 | 51.67213 | -3.13101 | 18369 ft | 387 kts | 302° |
| 2026-04-25 12:49 | 51.68696 | -3.16742 | 18888 ft | 390 kts | 304° |
| 2026-04-25 12:49 | 51.70494 | -3.20026 | 19382 ft | 395 kts | 317° |
| 2026-04-25 12:49 | 51.72765 | -3.22565 | 19878 ft | 400 kts | 331° |
| 2026-04-25 12:49 | 51.75373 | -3.24168 | 20398 ft | 405 kts | 345° |
| 2026-04-25 12:50 | 51.78178 | -3.24733 | 20872 ft | 411 kts | 358° |
| 2026-04-25 12:50 | 51.81048 | -3.24253 | 21353 ft | 415 kts | 7° |
| 2026-04-25 12:50 | 51.83908 | -3.23545 | 21841 ft | 418 kts | 7° |
| 2026-04-25 12:50 | 51.86781 | -3.22825 | 22315 ft | 420 kts | 7° |
| 2026-04-25 12:51 | 51.89697 | -3.22092 | 22790 ft | 423 kts | 6° |
| 2026-04-25 12:51 | 51.92617 | -3.21361 | 23243 ft | 426 kts | 6° |
| 2026-04-25 12:51 | 51.95554 | -3.20633 | 23693 ft | 428 kts | 6° |
| 2026-04-25 12:51 | 51.98504 | -3.19906 | 24067 ft | 431 kts | 6° |
| 2026-04-25 12:52 | 52.01481 | -3.19168 | 24433 ft | 433 kts | 6° |
| 2026-04-25 12:52 | 52.04473 | -3.18504 | 24783 ft | 435 kts | 2° |
| 2026-04-25 12:52 | 52.07495 | -3.18239 | 25132 ft | 436 kts | 0° |
| 2026-04-25 12:52 | 52.10537 | -3.18004 | 25481 ft | 438 kts | 0° |
| 2026-04-25 12:53 | 52.13555 | -3.17783 | 25820 ft | 441 kts | 0° |
| 2026-04-25 12:53 | 52.16630 | -3.17560 | 26131 ft | 443 kts | 0° |
| 2026-04-25 12:53 | 52.19764 | -3.17327 | 26212 ft | 447 kts | 0° |
| 2026-04-25 12:53 | 52.22836 | -3.17098 | 26218 ft | 449 kts | 0° |
| 2026-04-25 12:54 | 52.25964 | -3.16860 | 26221 ft | 450 kts | 0° |
| 2026-04-25 12:54 | 52.29089 | -3.16620 | 26221 ft | 451 kts | 0° |
| 2026-04-25 12:54 | 52.32229 | -3.16377 | 26221 ft | 451 kts | 0° |
| 2026-04-25 12:54 | 52.35364 | -3.16136 | 26220 ft | 451 kts | 0° |
| 2026-04-25 12:55 | 52.38500 | -3.15893 | 26219 ft | 451 kts | 0° |
| 2026-04-25 12:55 | 52.40619 | -3.15727 | 26220 ft | 451 kts | 0° |
| 2026-04-25 12:55 | 52.44770 | -3.15397 | 26222 ft | 451 kts | 0° |
| 2026-04-25 12:55 | 52.47917 | -3.15151 | 26220 ft | 451 kts | 0° |
| 2026-04-25 12:56 | 52.51055 | -3.14907 | 26214 ft | 451 kts | 0° |
| 2026-04-25 12:56 | 52.54190 | -3.14661 | 26213 ft | 451 kts | 0° |
| 2026-04-25 12:56 | 52.57334 | -3.14412 | 26210 ft | 451 kts | 0° |
| 2026-04-25 12:56 | 52.60470 | -3.14164 | 26207 ft | 451 kts | 0° |
| 2026-04-25 12:57 | 52.63604 | -3.13914 | 26207 ft | 451 kts | 0° |
| 2026-04-25 12:57 | 52.66736 | -3.13667 | 26205 ft | 451 kts | 0° |
| 2026-04-25 12:57 | 52.69871 | -3.13427 | 26203 ft | 451 kts | 0° |
| 2026-04-25 12:57 | 52.72993 | -3.13575 | 26204 ft | 448 kts | 352° |
| 2026-04-25 12:58 | 52.76084 | -3.14276 | 26204 ft | 448 kts | 349° |
| 2026-04-25 12:58 | 52.79172 | -3.15009 | 26205 ft | 448 kts | 349° |
| 2026-04-25 12:58 | 52.82261 | -3.15742 | 26206 ft | 448 kts | 350° |
| 2026-04-25 12:58 | 52.85351 | -3.16477 | 26206 ft | 448 kts | 349° |
| 2026-04-25 12:59 | 52.88441 | -3.17162 | 26201 ft | 449 kts | 353° |
| 2026-04-25 12:59 | 52.91577 | -3.17239 | 26195 ft | 451 kts | 1° |
| 2026-04-25 12:59 | 52.94706 | -3.16979 | 26192 ft | 451 kts | 1° |
| 2026-04-25 12:59 | 52.97801 | -3.16728 | 26187 ft | 451 kts | 1° |
| 2026-04-25 13:00 | 52.99922 | -3.16560 | 26185 ft | 452 kts | 1° |
| 2026-04-25 13:00 | 53.02003 | -3.16396 | 26180 ft | 452 kts | 1° |
| 2026-04-25 13:00 | 53.07223 | -3.15983 | 26180 ft | 452 kts | 1° |
| 2026-04-25 13:00 | 53.10360 | -3.15731 | 26175 ft | 452 kts | 1° |
| 2026-04-25 13:01 | 53.13498 | -3.15481 | 26170 ft | 452 kts | 1° |
| 2026-04-25 13:01 | 53.16639 | -3.15238 | 26170 ft | 452 kts | 1° |
| 2026-04-25 13:01 | 53.19784 | -3.14995 | 26171 ft | 452 kts | 1° |
| 2026-04-25 13:01 | 53.22929 | -3.14751 | 26171 ft | 452 kts | 1° |
| 2026-04-25 13:02 | 53.26073 | -3.14507 | 26181 ft | 452 kts | 1° |
| 2026-04-25 13:02 | 53.29215 | -3.14259 | 26182 ft | 452 kts | 1° |
| 2026-04-25 13:02 | 53.32362 | -3.14011 | 26189 ft | 452 kts | 1° |
| 2026-04-25 13:02 | 53.35504 | -3.13763 | 26203 ft | 453 kts | 1° |
| 2026-04-25 13:03 | 53.38652 | -3.13541 | 26203 ft | 452 kts | 358° |
| 2026-04-25 13:03 | 53.41785 | -3.13839 | 26201 ft | 451 kts | 353° |
| 2026-04-25 13:03 | 53.44909 | -3.14310 | 26202 ft | 451 kts | 353° |
| 2026-04-25 13:03 | 53.48031 | -3.14779 | 26200 ft | 451 kts | 353° |
| 2026-04-25 13:04 | 53.51160 | -3.15250 | 26200 ft | 451 kts | 353° |
| 2026-04-25 13:04 | 53.54285 | -3.15722 | 26204 ft | 451 kts | 353° |
| 2026-04-25 13:04 | 53.57415 | -3.16193 | 26201 ft | 451 kts | 353° |
| 2026-04-25 13:04 | 53.60541 | -3.16662 | 26202 ft | 451 kts | 353° |
| 2026-04-25 13:05 | 53.63669 | -3.17135 | 26200 ft | 451 kts | 353° |
| 2026-04-25 13:05 | 53.66778 | -3.17869 | 26200 ft | 450 kts | 345° |
| 2026-04-25 13:05 | 53.69736 | -3.19510 | 26199 ft | 447 kts | 334° |
| 2026-04-25 13:05 | 53.72455 | -3.22012 | 26197 ft | 445 kts | 324° |
| 2026-04-25 13:06 | 53.74856 | -3.25274 | 26198 ft | 442 kts | 314° |
| 2026-04-25 13:06 | 53.76871 | -3.29179 | 26198 ft | 440 kts | 304° |
| 2026-04-25 13:06 | 53.78515 | -3.33526 | 26198 ft | 440 kts | 300° |
| 2026-04-25 13:06 | 53.80113 | -3.37945 | 26199 ft | 440 kts | 300° |
| 2026-04-25 13:07 | 53.81707 | -3.42365 | 26199 ft | 440 kts | 300° |
| 2026-04-25 13:07 | 53.83274 | -3.46724 | 26200 ft | 440 kts | 300° |
| 2026-04-25 13:07 | 53.84864 | -3.51160 | 26203 ft | 440 kts | 300° |
| 2026-04-25 13:07 | 53.86450 | -3.55601 | 26204 ft | 440 kts | 300° |
| 2026-04-25 13:08 | 53.88030 | -3.60038 | 26206 ft | 440 kts | 300° |
| 2026-04-25 13:08 | 53.89616 | -3.64490 | 26207 ft | 440 kts | 300° |
| 2026-04-25 13:08 | 53.91200 | -3.68941 | 26206 ft | 440 kts | 300° |
| 2026-04-25 13:08 | 53.92782 | -3.73393 | 26204 ft | 440 kts | 299° |
| 2026-04-25 13:09 | 53.94363 | -3.77859 | 26209 ft | 440 kts | 299° |
| 2026-04-25 13:09 | 53.95941 | -3.82320 | 26207 ft | 440 kts | 299° |
| 2026-04-25 13:09 | 53.97505 | -3.86796 | 26207 ft | 440 kts | 299° |
| 2026-04-25 13:09 | 53.99040 | -3.91292 | 26205 ft | 440 kts | 298° |
| 2026-04-25 13:10 | 54.00558 | -3.95811 | 26210 ft | 440 kts | 298° |
| 2026-04-25 13:10 | 54.02067 | -4.00342 | 26203 ft | 440 kts | 298° |
| 2026-04-25 13:10 | 54.03570 | -4.04868 | 26204 ft | 440 kts | 298° |
| 2026-04-25 13:10 | 54.05079 | -4.09405 | 26205 ft | 440 kts | 298° |
| 2026-04-25 13:11 | 54.06654 | -4.13872 | 26203 ft | 441 kts | 303° |
| 2026-04-25 13:11 | 54.08430 | -4.18133 | 26202 ft | 441 kts | 304° |
| 2026-04-25 13:11 | 54.10207 | -4.22399 | 26203 ft | 441 kts | 303° |
| 2026-04-25 13:11 | 54.11979 | -4.26669 | 26203 ft | 441 kts | 303° |
| 2026-04-25 13:12 | 54.13749 | -4.30955 | 26199 ft | 442 kts | 303° |
| 2026-04-25 13:12 | 54.15491 | -4.35185 | 26200 ft | 442 kts | 303° |
| 2026-04-25 13:12 | 54.17258 | -4.39474 | 26199 ft | 442 kts | 303° |
| 2026-04-25 13:12 | 54.17854 | -4.40921 | 26203 ft | 442 kts | 303° |
| 2026-04-25 13:13 | 54.20791 | -4.48060 | 26203 ft | 442 kts | 303° |
| 2026-04-25 13:13 | 54.22555 | -4.52365 | 26201 ft | 442 kts | 303° |
| 2026-04-25 13:13 | 54.24316 | -4.56665 | 26200 ft | 442 kts | 303° |
| 2026-04-25 13:13 | 54.26076 | -4.60969 | 26202 ft | 442 kts | 303° |
| 2026-04-25 13:14 | 54.27834 | -4.65278 | 26199 ft | 442 kts | 303° |
| 2026-04-25 13:14 | 54.29593 | -4.69608 | 26046 ft | 443 kts | 303° |
| 2026-04-25 13:14 | 54.31122 | -4.74153 | 25151 ft | 442 kts | 290° |
| 2026-04-25 13:14 | 54.31900 | -4.79243 | 24037 ft | 445 kts | 277° |
| 2026-04-25 13:15 | 54.32357 | -4.84510 | 22784 ft | 450 kts | 277° |
| 2026-04-25 13:15 | 54.32811 | -4.89832 | 21861 ft | 449 kts | 277° |
| 2026-04-25 13:15 | 54.33108 | -4.93315 | 21417 ft | 444 kts | 277° |
| 2026-04-25 13:15 | 54.33408 | -4.96826 | 20952 ft | 440 kts | 277° |
| 2026-04-25 13:16 | 54.33996 | -5.03616 | 19809 ft | 428 kts | 277° |
| 2026-04-25 13:16 | 54.34435 | -5.08635 | 18599 ft | 422 kts | 277° |
| 2026-04-25 13:16 | 54.34866 | -5.13573 | 17283 ft | 416 kts | 277° |
| 2026-04-25 13:16 | 54.35288 | -5.18441 | 16010 ft | 410 kts | 277° |
| 2026-04-25 13:17 | 54.35701 | -5.23247 | 14805 ft | 405 kts | 276° |
| 2026-04-25 13:17 | 54.36105 | -5.27986 | 13600 ft | 399 kts | 276° |
| 2026-04-25 13:17 | 54.36498 | -5.32654 | 12586 ft | 389 kts | 276° |
| 2026-04-25 13:17 | 54.36869 | -5.37072 | 12349 ft | 360 kts | 276° |
| 2026-04-25 13:18 | 54.37212 | -5.41149 | 12215 ft | 332 kts | 276° |
| 2026-04-25 13:18 | 54.37528 | -5.44926 | 12042 ft | 310 kts | 276° |
| 2026-04-25 13:18 | 54.37827 | -5.48519 | 11570 ft | 301 kts | 276° |
| 2026-04-25 13:18 | 54.38117 | -5.52053 | 10998 ft | 297 kts | 276° |
| 2026-04-25 13:19 | 54.38403 | -5.55536 | 10435 ft | 293 kts | 276° |
| 2026-04-25 13:19 | 54.38682 | -5.58959 | 10093 ft | 285 kts | 276° |
| 2026-04-25 13:19 | 54.38959 | -5.62349 | 9653 ft | 287 kts | 276° |
| 2026-04-25 13:19 | 54.39140 | -5.64579 | 9293 ft | 284 kts | 276° |
| 2026-04-25 13:20 | 54.39501 | -5.69036 | 8582 ft | 283 kts | 277° |
| 2026-04-25 13:20 | 54.39773 | -5.72390 | 8172 ft | 282 kts | 277° |
| 2026-04-25 13:20 | 54.40044 | -5.75730 | 7774 ft | 283 kts | 277° |
| 2026-04-25 13:20 | 54.40313 | -5.79041 | 7470 ft | 280 kts | 277° |
| 2026-04-25 13:21 | 54.40577 | -5.82331 | 7135 ft | 277 kts | 277° |
| 2026-04-25 13:21 | 54.40838 | -5.85615 | 6791 ft | 275 kts | 277° |
| 2026-04-25 13:21 | 54.41092 | -5.88819 | 6454 ft | 273 kts | 277° |
| 2026-04-25 13:21 | 54.41346 | -5.92043 | 6089 ft | 272 kts | 277° |
| 2026-04-25 13:22 | 54.41598 | -5.95240 | 5590 ft | 268 kts | 276° |
| 2026-04-25 13:22 | 54.41848 | -5.98419 | 4862 ft | 270 kts | 276° |
| 2026-04-25 13:22 | 54.42146 | -6.01623 | 4218 ft | 265 kts | 285° |
| 2026-04-25 13:23 | 54.44513 | -6.05562 | 3853 ft | 235 kts | 346° |
| 2026-04-25 13:23 | 54.46118 | -6.05536 | 3637 ft | 231 kts | 17° |
| 2026-04-25 13:23 | 54.47533 | -6.04292 | 3487 ft | 227 kts | 36° |
| 2026-04-25 13:23 | 54.48812 | -6.02754 | 3419 ft | 221 kts | 35° |
| 2026-04-25 13:24 | 54.50067 | -6.01254 | 3224 ft | 218 kts | 35° |
| 2026-04-25 13:24 | 54.51296 | -5.99790 | 3130 ft | 212 kts | 36° |
| 2026-04-25 13:24 | 54.52494 | -5.98365 | 2920 ft | 207 kts | 36° |
| 2026-04-25 13:24 | 54.53660 | -5.96978 | 2768 ft | 204 kts | 36° |
| 2026-04-25 13:25 | 54.54838 | -5.95575 | 2202 ft | 208 kts | 36° |
| 2026-04-25 13:25 | 54.56008 | -5.94180 | 2026 ft | 202 kts | 37° |
| 2026-04-25 13:25 | 54.57146 | -5.92823 | 2028 ft | 201 kts | 36° |
| 2026-04-25 13:25 | 54.58305 | -5.91438 | 2491 ft | 209 kts | 36° |
| 2026-04-25 13:26 | 54.59538 | -5.89900 | 2775 ft | 231 kts | 44° |
| 2026-04-25 13:26 | 54.60436 | -5.87534 | 3470 ft | 242 kts | 67° |
| 2026-04-25 13:26 | 54.61093 | -5.84814 | 4363 ft | 247 kts | 69° |
| 2026-04-25 13:26 | 54.61718 | -5.81998 | 4847 ft | 254 kts | 70° |
| 2026-04-25 13:27 | 54.62338 | -5.79143 | 4979 ft | 253 kts | 70° |
| 2026-04-25 13:27 | 54.62951 | -5.76302 | 5009 ft | 253 kts | 70° |
| 2026-04-25 13:27 | 54.63566 | -5.73459 | 5010 ft | 253 kts | 70° |
| 2026-04-25 13:27 | 54.64181 | -5.70615 | 5006 ft | 253 kts | 70° |
| 2026-04-25 13:28 | 54.64793 | -5.67773 | 5014 ft | 253 kts | 70° |
| 2026-04-25 13:28 | 54.65194 | -5.65890 | 5014 ft | 252 kts | 72° |
| 2026-04-25 13:28 | 54.65765 | -5.62034 | 5011 ft | 244 kts | 73° |
| 2026-04-25 13:28 | 54.66548 | -5.59475 | 5015 ft | 241 kts | 48° |
| 2026-04-25 13:29 | 54.67884 | -5.57778 | 5008 ft | 238 kts | 21° |
| 2026-04-25 13:29 | 54.69481 | -5.57240 | 4805 ft | 237 kts | 355° |
| 2026-04-25 13:29 | 54.71097 | -5.57756 | 4404 ft | 237 kts | 346° |
| 2026-04-25 13:30 | 54.74317 | -5.59010 | 3830 ft | 232 kts | 346° |
| 2026-04-25 13:30 | 54.75857 | -5.59596 | 3765 ft | 221 kts | 345° |
| 2026-04-25 13:30 | 54.77220 | -5.60698 | 3575 ft | 215 kts | 316° |
| 2026-04-25 13:31 | 54.78187 | -5.65094 | 3456 ft | 191 kts | 260° |
| 2026-04-25 13:31 | 54.77750 | -5.67153 | 3368 ft | 177 kts | 239° |
| 2026-04-25 13:31 | 54.77034 | -5.68782 | 3303 ft | 163 kts | 224° |
| 2026-04-25 13:31 | 54.76174 | -5.69954 | 3221 ft | 153 kts | 215° |
| 2026-04-25 13:32 | 54.75298 | -5.71034 | 3085 ft | 160 kts | 216° |
| 2026-04-25 13:32 | 54.74368 | -5.72162 | 2875 ft | 163 kts | 213° |
| 2026-04-25 13:32 | 54.73437 | -5.73284 | 2659 ft | 163 kts | 214° |
| 2026-04-25 13:32 | 54.72519 | -5.74391 | 2445 ft | 160 kts | 214° |
| 2026-04-25 13:33 | 54.71622 | -5.75471 | 2230 ft | 159 kts | 214° |
| 2026-04-25 13:33 | 54.70726 | -5.76550 | 2036 ft | 152 kts | 213° |
| 2026-04-25 13:33 | 54.69881 | -5.77567 | 1814 ft | 144 kts | 213° |
| 2026-04-25 13:33 | 54.69331 | -5.78228 | 1686 ft | 142 kts | 213° |
| 2026-04-25 13:34 | 54.68260 | -5.79515 | 1429 ft | 141 kts | 213° |
| 2026-04-25 13:34 | 54.67456 | -5.80481 | 1238 ft | 141 kts | 213° |
| 2026-04-25 13:34 | 54.66649 | -5.81450 | 1042 ft | 142 kts | 213° |
| 2026-04-25 13:34 | 54.65831 | -5.82431 | 842 ft | 145 kts | 214° |
| 2026-04-25 13:35 | 54.65001 | -5.83427 | 655 ft | 146 kts | 215° |
| 2026-04-25 13:35 | 54.64161 | -5.84431 | 461 ft | 147 kts | 216° |
| 2026-04-25 13:35 | 54.63317 | -5.85441 | 262 ft | 148 kts | 215° |
| 2026-04-25 13:35 | 54.62475 | -5.86459 | 62 ft | 148 kts | 216° |
| 2026-04-25 13:36 | 54.61711 | -5.87370 | 26 ft | 100 kts | 214° |
| 2026-04-25 13:36 | 54.61387 | -5.87756 | 21 ft | 16 kts | 214° |
| 2026-04-25 13:36 | 54.61319 | -5.87796 | 21 ft | 9 kts | 158° |
| 2026-04-25 13:36 | 54.61283 | -5.87723 | 22 ft | 7 kts | 125° |
| 2026-04-25 13:37 | 54.61262 | -5.87672 | 23 ft | 4 kts | 125° |
| 2026-04-25 13:37 | 54.61253 | -5.87619 | 23 ft | 7 kts | 85° |
| 2026-04-25 13:37 | 54.61304 | -5.87540 | 23 ft | 12 kts | 34° |
| 2026-04-25 13:37 | 54.61363 | -5.87468 | 23 ft | 7 kts | 35° |
| 2026-04-25 13:38 | 54.61403 | -5.87403 | 23 ft | 9 kts | 58° |
| 2026-04-25 13:38 | 54.61443 | -5.87327 | 23 ft | 6 kts | 37° |
| 2026-04-25 13:38 | 54.61456 | -5.87312 | 23 ft | 1 kts | 36° |
| 2026-04-25 13:38 | 54.61479 | -5.87284 | 25 ft | 8 kts | 34° |
| 2026-04-25 13:39 | 54.61502 | -5.87257 | 23 ft | 0 kts | 34° |
| 2026-04-25 13:39 | 54.61513 | -5.87236 | 23 ft | 2 kts | 68° |
| 2026-04-25 13:39 | 54.61502 | -5.87220 | 23 ft | 3 kts | 153° |
| 2026-04-25 13:39 | 54.61478 | -5.87201 | 23 ft | 3 kts | 155° |
| 2026-04-25 13:40 | 54.61466 | -5.87191 | 25 ft | 1 kts | 155° |
| 2026-04-25 13:40 | 54.61462 | -5.87188 | 24 ft | 1 kts | 156° |
| 2026-04-25 13:40 | 54.61460 | -5.87187 | 23 ft | 0 kts | 155° |
| 2026-04-25 13:56 | 54.61461 | -5.87187 | 24 ft | 0 kts | 155° |